Time;durP1;ratioP1;P1;durP2;ratioP2;P2;SDS_P1;SDS_P2;PMS_P1;PMS_P2;Temp;Humidity;BMP_temperature;BMP_pressure;BME280_temperature;BME280_humidity;BME280_pressure;Samples;Min_cycle;Max_cycle;Signal;HPM_P1;HPM_P2
2021/08/16 00:01:17;;;;;;;15.75;5.22;;;;;;;;;;5014343;28;20112;-41
2021/08/16 00:03:42;;;;;;;9.32;5.28;;;;;;;;;;5014474;28;20024;-41
2021/08/16 00:06:07;;;;;;;8.05;4.85;;;;;;;;;;5014226;28;20404;-41
2021/08/16 00:08:33;;;;;;;6.05;4.78;;;;;;;;;;5014488;28;20371;-41
2021/08/16 00:11:02;;;;;;;10.65;4.80;;;;;;;;;;5029211;28;20451;-41
2021/08/16 00:13:28;;;;;;;5.97;4.82;;;;;;;;;;5013685;28;20026;-41
2021/08/16 00:15:53;;;;;;;7.50;5.65;;;;;;;;;;5013835;28;20491;-41
2021/08/16 00:18:19;;;;;;;8.70;4.40;;;;;;;;;;5014238;28;20102;-41
2021/08/16 00:20:44;;;;;;;10.10;4.57;;;;;;;;;;5014175;28;20034;-41
2021/08/16 00:23:09;;;;;;;6.57;4.20;;;;;;;;;;5014066;28;20222;-41
2021/08/16 00:25:35;;;;;;;8.32;4.90;;;;;;;;;;5013354;28;20058;-40
2021/08/16 00:28:00;;;;;;;14.13;4.45;;;;;;;;;;5013758;28;20026;-41
2021/08/16 00:30:25;;;;;;;6.00;4.18;;;;;;;;;;5013771;28;20116;-41
2021/08/16 00:32:51;;;;;;;10.13;4.55;;;;;;;;;;5013586;28;20014;-41
2021/08/16 00:35:16;;;;;;;5.45;4.10;;;;;;;;;;5028798;28;20485;-41
2021/08/16 00:37:42;;;;;;;10.57;4.90;;;;;;;;;;5013652;28;20156;-41
2021/08/16 00:40:08;;;;;;;10.25;4.65;;;;;;;;;;5013773;28;20088;-42
2021/08/16 00:42:33;;;;;;;7.80;4.82;;;;;;;;;;5013697;28;20018;-41
2021/08/16 00:44:59;;;;;;;13.73;4.35;;;;;;;;;;5012221;28;20030;-41
2021/08/16 00:47:24;;;;;;;6.30;5.28;;;;;;;;;;5013422;28;20053;-41
2021/08/16 00:49:49;;;;;;;7.10;4.38;;;;;;;;;;5028593;28;20044;-41
2021/08/16 00:52:15;;;;;;;9.13;5.75;;;;;;;;;;5013346;28;20068;-41
2021/08/16 00:54:40;;;;;;;6.78;4.90;;;;;;;;;;5013180;28;20049;-41
2021/08/16 00:57:06;;;;;;;12.00;5.90;;;;;;;;;;5013184;28;20014;-41
2021/08/16 00:59:32;;;;;;;10.30;5.20;;;;;;;;;;5013335;28;20033;-41
2021/08/16 01:01:57;;;;;;;11.25;5.55;;;;;;;;;;5028528;28;20487;-40
2021/08/16 01:04:23;;;;;;;9.15;4.95;;;;;;;;;;5013473;28;20026;-41
2021/08/16 01:06:48;;;;;;;6.20;4.75;;;;;;;;;;5013366;28;20017;-41
2021/08/16 01:09:15;;;;;;;9.15;4.38;;;;;;;;;;5013264;28;20053;-41
2021/08/16 01:11:40;;;;;;;7.25;4.78;;;;;;;;;;5013027;28;20033;-41
2021/08/16 01:14:06;;;;;;;10.93;5.20;;;;;;;;;;5011539;28;20083;-41
2021/08/16 01:16:31;;;;;;;8.27;4.78;;;;;;;;;;5013317;28;20018;-41
2021/08/16 01:18:57;;;;;;;8.45;5.10;;;;;;;;;;5012894;28;20112;-41
2021/08/16 01:21:22;;;;;;;8.05;4.93;;;;;;;;;;5012792;28;20021;-41
2021/08/16 01:23:47;;;;;;;16.70;5.18;;;;;;;;;;5012933;28;20026;-41
2021/08/16 01:26:14;;;;;;;9.50;5.22;;;;;;;;;;5011777;28;20054;-41
2021/08/16 01:28:40;;;;;;;6.57;4.63;;;;;;;;;;5013062;28;20117;-41
2021/08/16 01:31:06;;;;;;;7.35;5.65;;;;;;;;;;5027875;28;20112;-41
2021/08/16 01:33:31;;;;;;;8.90;4.65;;;;;;;;;;5013045;28;20412;-41
2021/08/16 01:35:57;;;;;;;5.97;4.55;;;;;;;;;;5012841;28;20033;-41
2021/08/16 01:38:25;;;;;;;9.77;4.53;;;;;;;;;;5027836;28;20042;-41
2021/08/16 01:40:51;;;;;;;10.20;5.28;;;;;;;;;;5012836;28;20048;-42
2021/08/16 01:43:16;;;;;;;6.72;4.72;;;;;;;;;;5012655;28;20468;-41
2021/08/16 01:45:42;;;;;;;9.32;4.45;;;;;;;;;;5012601;28;20350;-41
2021/08/16 01:48:07;;;;;;;10.40;5.28;;;;;;;;;;5012801;28;20420;-41
2021/08/16 01:50:33;;;;;;;7.03;4.63;;;;;;;;;;5012521;28;20061;-41
2021/08/16 01:52:59;;;;;;;7.60;5.45;;;;;;;;;;5012544;28;20087;-41
2021/08/16 01:55:24;;;;;;;8.23;4.43;;;;;;;;;;5027686;28;20034;-41
2021/08/16 01:57:50;;;;;;;10.02;5.57;;;;;;;;;;5012356;28;20113;-41
2021/08/16 02:00:16;;;;;;;7.72;4.75;;;;;;;;;;5012797;28;20022;-41
2021/08/16 02:02:41;;;;;;;7.15;5.05;;;;;;;;;;5012382;28;20438;-41
2021/08/16 02:05:07;;;;;;;8.10;4.72;;;;;;;;;;5012547;28;20037;-41
2021/08/16 02:07:32;;;;;;;11.68;5.30;;;;;;;;;;5012365;28;20418;-41
2021/08/16 02:09:58;;;;;;;17.77;5.78;;;;;;;;;;5012549;28;20096;-41
2021/08/16 02:12:23;;;;;;;6.20;4.90;;;;;;;;;;5027535;28;20389;-40
2021/08/16 02:14:48;;;;;;;11.90;5.47;;;;;;;;;;5027464;28;20040;-41
2021/08/16 02:17:14;;;;;;;7.57;5.03;;;;;;;;;;5012248;28;20113;-41
2021/08/16 02:19:39;;;;;;;8.18;4.80;;;;;;;;;;5012551;28;20076;-41
2021/08/16 02:22:04;;;;;;;7.43;4.97;;;;;;;;;;5027381;28;20029;-41
2021/08/16 02:24:30;;;;;;;6.93;4.72;;;;;;;;;;5012178;28;20123;-41
2021/08/16 02:26:55;;;;;;;7.05;4.88;;;;;;;;;;5012133;28;20022;-41
2021/08/16 02:29:20;;;;;;;9.50;6.03;;;;;;;;;;5012207;28;20464;-41
2021/08/16 02:31:46;;;;;;;6.25;4.85;;;;;;;;;;5012093;28;20033;-41
2021/08/16 02:34:11;;;;;;;8.05;4.68;;;;;;;;;;5011938;28;20037;-41
2021/08/16 02:36:37;;;;;;;7.85;5.82;;;;;;;;;;5013338;28;20034;-41
2021/08/16 02:39:03;;;;;;;9.02;5.53;;;;;;;;;;5015790;28;20018;-41
2021/08/16 02:41:28;;;;;;;8.93;4.88;;;;;;;;;;5016054;28;20080;-41
2021/08/16 02:43:53;;;;;;;9.63;5.60;;;;;;;;;;5015929;28;20101;-41
2021/08/16 02:46:19;;;;;;;13.82;5.80;;;;;;;;;;5016045;28;20032;-41
2021/08/16 02:48:45;;;;;;;9.15;4.43;;;;;;;;;;5015566;28;20022;-41
2021/08/16 02:51:11;;;;;;;6.70;4.50;;;;;;;;;;5015813;28;20058;-41
2021/08/16 02:53:36;;;;;;;13.10;5.10;;;;;;;;;;5015579;28;20092;-40
2021/08/16 02:56:01;;;;;;;5.00;4.10;;;;;;;;;;5015646;28;20056;-40
2021/08/16 02:58:27;;;;;;;8.52;4.55;;;;;;;;;;5015805;28;20014;-41
2021/08/16 03:00:52;;;;;;;7.65;4.82;;;;;;;;;;5013997;28;20357;-41
2021/08/16 03:03:17;;;;;;;5.93;4.95;;;;;;;;;;5015544;28;20072;-41
2021/08/16 03:05:43;;;;;;;7.43;4.30;;;;;;;;;;5015657;28;20026;-41
2021/08/16 03:08:08;;;;;;;7.47;4.65;;;;;;;;;;5030318;28;20024;-41
2021/08/16 03:10:34;;;;;;;6.80;4.53;;;;;;;;;;5015243;28;20095;-41
2021/08/16 03:12:59;;;;;;;8.27;4.30;;;;;;;;;;5030340;28;20013;-41
2021/08/16 03:15:25;;;;;;;5.10;4.03;;;;;;;;;;5015334;28;20038;-40
2021/08/16 03:17:50;;;;;;;6.53;4.90;;;;;;;;;;5015127;28;20097;-41
2021/08/16 03:20:16;;;;;;;8.07;4.32;;;;;;;;;;5015097;28;20080;-41
2021/08/16 03:22:42;;;;;;;5.97;4.53;;;;;;;;;;5030425;28;20021;-41
2021/08/16 03:25:07;;;;;;;7.25;3.88;;;;;;;;;;5014758;28;20042;-41
2021/08/16 03:27:33;;;;;;;5.65;4.00;;;;;;;;;;5014996;28;20033;-41
2021/08/16 03:29:58;;;;;;;10.57;4.45;;;;;;;;;;5014903;28;20025;-40
2021/08/16 03:32:23;;;;;;;7.63;4.40;;;;;;;;;;5014808;28;20400;-41
2021/08/16 03:34:49;;;;;;;5.97;4.03;;;;;;;;;;5014871;28;20045;-41
2021/08/16 03:37:15;;;;;;;7.28;4.53;;;;;;;;;;5014684;28;20483;-41
2021/08/16 03:39:41;;;;;;;7.18;4.90;;;;;;;;;;5015050;28;20045;-41
2021/08/16 03:42:06;;;;;;;8.63;4.43;;;;;;;;;;5014657;28;20014;-41
2021/08/16 03:44:31;;;;;;;5.60;4.82;;;;;;;;;;5029857;28;20084;-42
2021/08/16 03:46:57;;;;;;;8.20;4.78;;;;;;;;;;5014568;28;20026;-41
2021/08/16 03:49:22;;;;;;;5.13;4.10;;;;;;;;;;5014061;28;20025;-40
2021/08/16 03:51:47;;;;;;;6.15;3.85;;;;;;;;;;5014443;28;20377;-41
2021/08/16 03:54:13;;;;;;;5.30;4.30;;;;;;;;;;5014673;28;20053;-41
2021/08/16 03:56:38;;;;;;;7.47;4.45;;;;;;;;;;5014422;28;20465;-41
2021/08/16 03:59:03;;;;;;;8.38;4.70;;;;;;;;;;5013911;28;20109;-41
2021/08/16 04:01:29;;;;;;;5.63;3.70;;;;;;;;;;5014610;28;20022;-42
2021/08/16 04:03:54;;;;;;;6.93;4.07;;;;;;;;;;5014498;28;20096;-41
2021/08/16 04:06:19;;;;;;;7.38;4.13;;;;;;;;;;5014243;28;20148;-41
2021/08/16 04:08:45;;;;;;;6.43;3.65;;;;;;;;;;5012987;28;20037;-41
2021/08/16 04:11:11;;;;;;;5.43;3.90;;;;;;;;;;5014067;28;20018;-40
2021/08/16 04:13:37;;;;;;;9.13;4.63;;;;;;;;;;5014110;28;20487;-40
2021/08/16 04:16:02;;;;;;;5.97;4.40;;;;;;;;;;5013889;28;20033;-41
2021/08/16 04:18:28;;;;;;;10.02;4.82;;;;;;;;;;5014005;28;20030;-41
2021/08/16 04:20:54;;;;;;;7.32;3.80;;;;;;;;;;5013798;28;20020;-41
2021/08/16 04:23:20;;;;;;;4.90;3.92;;;;;;;;;;5012791;28;20037;-41
2021/08/16 04:25:45;;;;;;;6.25;3.40;;;;;;;;;;5013821;28;20054;-41
2021/08/16 04:28:10;;;;;;;6.25;4.05;;;;;;;;;;5013709;28;20117;-42
2021/08/16 04:30:36;;;;;;;5.80;4.55;;;;;;;;;;5029092;28;20021;-43
2021/08/16 04:33:01;;;;;;;5.05;4.13;;;;;;;;;;5013548;28;20465;-41
2021/08/16 04:35:27;;;;;;;8.38;4.05;;;;;;;;;;5013823;28;20088;-40
2021/08/16 04:37:52;;;;;;;5.65;3.70;;;;;;;;;;5013659;28;20397;-41
2021/08/16 04:40:17;;;;;;;5.95;4.03;;;;;;;;;;5013848;28;20022;-41
2021/08/16 04:42:43;;;;;;;7.10;4.82;;;;;;;;;;5013602;28;20026;-41
2021/08/16 04:45:09;;;;;;;5.82;3.80;;;;;;;;;;5013735;28;20025;-41
2021/08/16 04:47:35;;;;;;;9.77;4.53;;;;;;;;;;5013698;28;20105;-40
2021/08/16 04:50:01;;;;;;;12.02;4.45;;;;;;;;;;5013676;28;20628;-41
2021/08/16 04:52:26;;;;;;;7.72;4.00;;;;;;;;;;5013348;28;20033;-41
2021/08/16 04:54:51;;;;;;;8.55;4.93;;;;;;;;;;5013547;28;20109;-41
2021/08/16 04:57:28;;;;;;;7.13;3.97;;;;;;;;;;5013335;28;20029;-41
2021/08/16 04:59:53;;;;;;;6.60;4.15;;;;;;;;;;5013121;28;20026;-41
2021/08/16 05:02:18;;;;;;;7.28;4.18;;;;;;;;;;5013227;28;20021;-41
2021/08/16 05:04:46;;;;;;;4.85;4.28;;;;;;;;;;5011914;28;20045;-41
2021/08/16 05:07:12;;;;;;;7.05;4.38;;;;;;;;;;5013426;28;20030;-41
2021/08/16 05:09:37;;;;;;;8.38;3.75;;;;;;;;;;5013115;28;20472;-41
2021/08/16 05:12:03;;;;;;;6.95;4.38;;;;;;;;;;5012942;28;20020;-41
2021/08/16 05:14:28;;;;;;;6.03;4.45;;;;;;;;;;5013045;28;20036;-41
2021/08/16 05:16:53;;;;;;;7.43;4.15;;;;;;;;;;5028066;28;20076;-41
2021/08/16 05:19:19;;;;;;;10.18;4.30;;;;;;;;;;5013012;28;20030;-41
2021/08/16 05:21:44;;;;;;;4.57;3.85;;;;;;;;;;5012698;28;20022;-40
2021/08/16 05:24:10;;;;;;;7.55;3.75;;;;;;;;;;5012831;28;20049;-42
2021/08/16 05:26:35;;;;;;;6.03;3.83;;;;;;;;;;5012901;28;20026;-41
2021/08/16 05:29:00;;;;;;;6.78;4.25;;;;;;;;;;5012871;28;20033;-42
2021/08/16 05:31:26;;;;;;;6.30;4.63;;;;;;;;;;5027917;28;20036;-41
2021/08/16 05:33:51;;;;;;;6.05;3.90;;;;;;;;;;5012779;28;20439;-41
2021/08/16 05:36:16;;;;;;;7.10;3.72;;;;;;;;;;5012623;28;20029;-41
2021/08/16 05:38:43;;;;;;;8.35;4.25;;;;;;;;;;5012674;28;20054;-41
2021/08/16 05:41:08;;;;;;;7.28;4.93;;;;;;;;;;5012659;28;20107;-41
2021/08/16 05:43:34;;;;;;;9.23;3.90;;;;;;;;;;5012918;28;20049;-40
2021/08/16 05:45:59;;;;;;;10.52;5.20;;;;;;;;;;5012503;28;20427;-41
2021/08/16 05:48:24;;;;;;;5.43;3.90;;;;;;;;;;5012621;28;20149;-41
2021/08/16 05:50:50;;;;;;;5.13;4.00;;;;;;;;;;5012275;28;20026;-41
2021/08/16 05:53:15;;;;;;;5.03;3.92;;;;;;;;;;5012488;28;20117;-41
2021/08/16 05:55:41;;;;;;;9.05;4.10;;;;;;;;;;5012419;28;20029;-41
2021/08/16 05:58:07;;;;;;;4.55;3.40;;;;;;;;;;5012431;28;20058;-42
2021/08/16 06:00:32;;;;;;;4.18;3.55;;;;;;;;;;5012744;28;20050;-41
2021/08/16 06:02:57;;;;;;;6.25;4.20;;;;;;;;;;5012621;28;20056;-41
2021/08/16 06:05:23;;;;;;;6.70;4.13;;;;;;;;;;5012540;28;20471;-41
2021/08/16 06:07:48;;;;;;;8.70;4.57;;;;;;;;;;5012364;28;20032;-40
2021/08/16 06:10:14;;;;;;;7.40;3.47;;;;;;;;;;5013007;28;20118;-40
2021/08/16 06:12:39;;;;;;;6.15;3.90;;;;;;;;;;5015673;28;20477;-40
2021/08/16 06:15:05;;;;;;;5.22;3.53;;;;;;;;;;5016120;28;20042;-41
2021/08/16 06:17:31;;;;;;;7.43;3.80;;;;;;;;;;5016284;28;20022;-41
2021/08/16 06:19:56;;;;;;;7.82;3.42;;;;;;;;;;5016081;28;20017;-41
2021/08/16 06:22:21;;;;;;;5.50;3.90;;;;;;;;;;5016461;28;20041;-41
2021/08/16 06:24:47;;;;;;;3.92;3.40;;;;;;;;;;5016035;28;20535;-41
2021/08/16 06:27:12;;;;;;;10.43;3.70;;;;;;;;;;5031543;28;20156;-41
2021/08/16 06:29:37;;;;;;;7.45;4.57;;;;;;;;;;5016398;28;20046;-41
2021/08/16 06:32:03;;;;;;;8.40;4.03;;;;;;;;;;5015929;28;20116;-43
2021/08/16 06:34:28;;;;;;;7.38;4.20;;;;;;;;;;5015836;28;20107;-41
2021/08/16 06:36:55;;;;;;;5.45;4.03;;;;;;;;;;5016200;28;20033;-41
2021/08/16 06:39:21;;;;;;;6.63;4.63;;;;;;;;;;5016160;28;20018;-41
2021/08/16 06:41:51;;;;;;;3.97;3.50;;;;;;;;;;5031042;28;20129;-41
2021/08/16 06:44:17;;;;;;;9.63;3.85;;;;;;;;;;5015759;28;20017;-40
2021/08/16 06:46:43;;;;;;;5.72;3.63;;;;;;;;;;5016010;28;20029;-41
2021/08/16 06:49:09;;;;;;;6.75;4.10;;;;;;;;;;5015925;28;20022;-41
2021/08/16 06:51:34;;;;;;;7.18;4.20;;;;;;;;;;5030830;28;20030;-41
2021/08/16 06:53:59;;;;;;;7.05;4.43;;;;;;;;;;5015621;28;20110;-41
2021/08/16 06:56:25;;;;;;;6.47;3.80;;;;;;;;;;5030609;28;20049;-41
2021/08/16 06:58:50;;;;;;;4.40;3.85;;;;;;;;;;5015522;28;20021;-40
2021/08/16 07:01:22;;;;;;;7.82;3.90;;;;;;;;;;5015712;28;20034;-41
2021/08/16 07:03:48;;;;;;;5.03;3.53;;;;;;;;;;5015442;28;20062;-41
2021/08/16 07:06:13;;;;;;;6.80;3.47;;;;;;;;;;5030976;28;20061;-41
2021/08/16 07:08:42;;;;;;;5.72;4.38;;;;;;;;;;5015474;28;20479;-41
2021/08/16 07:11:10;;;;;;;12.52;5.97;;;;;;;;;;5030338;28;20468;-41
2021/08/16 07:13:36;;;;;;;5.68;3.83;;;;;;;;;;5015377;28;20105;-41
2021/08/16 07:16:01;;;;;;;5.40;3.47;;;;;;;;;;5030303;28;20116;-41
2021/08/16 07:18:27;;;;;;;4.03;3.65;;;;;;;;;;5015404;28;20464;-41
2021/08/16 07:20:52;;;;;;;7.55;3.28;;;;;;;;;;5014589;28;20021;-41
2021/08/16 07:23:17;;;;;;;4.55;3.55;;;;;;;;;;5013709;28;20034;-41
2021/08/16 07:25:43;;;;;;;6.68;4.03;;;;;;;;;;5015234;28;20077;-40
2021/08/16 07:28:08;;;;;;;4.68;3.08;;;;;;;;;;5014865;28;20064;-41
2021/08/16 07:30:34;;;;;;;4.57;3.40;;;;;;;;;;5014987;28;20018;-41
2021/08/16 07:32:59;;;;;;;7.20;3.63;;;;;;;;;;5014840;28;20156;-41
2021/08/16 07:35:25;;;;;;;5.05;3.55;;;;;;;;;;5014794;28;20081;-41
2021/08/16 07:37:50;;;;;;;6.05;3.90;;;;;;;;;;5015130;28;20537;-41
2021/08/16 07:40:16;;;;;;;7.20;4.30;;;;;;;;;;5029816;28;20412;-42
2021/08/16 07:42:41;;;;;;;5.78;4.18;;;;;;;;;;5014773;28;20034;-41
2021/08/16 07:45:08;;;;;;;4.15;3.47;;;;;;;;;;5014928;28;20026;-42
2021/08/16 07:47:34;;;;;;;5.63;4.00;;;;;;;;;;5014509;28;20026;-41
2021/08/16 07:49:59;;;;;;;7.00;3.67;;;;;;;;;;5014763;28;20028;-41
2021/08/16 07:52:24;;;;;;;6.22;3.88;;;;;;;;;;5014918;28;20626;-40
2021/08/16 07:54:53;;;;;;;8.02;4.32;;;;;;;;;;5014652;28;20030;-41
2021/08/16 07:57:18;;;;;;;4.38;3.88;;;;;;;;;;5014339;28;20025;-41
2021/08/16 07:59:43;;;;;;;11.32;3.97;;;;;;;;;;5014376;28;20097;-41
2021/08/16 08:02:09;;;;;;;7.00;4.15;;;;;;;;;;5014493;28;20424;-41
2021/08/16 08:04:34;;;;;;;11.32;4.13;;;;;;;;;;5014630;28;20018;-41
2021/08/16 08:07:01;;;;;;;5.03;3.53;;;;;;;;;;5014342;28;20530;-41
2021/08/16 08:09:26;;;;;;;6.50;4.40;;;;;;;;;;5014260;28;20101;-41
2021/08/16 08:11:52;;;;;;;4.78;3.38;;;;;;;;;;5014079;28;20113;-41
2021/08/16 08:14:17;;;;;;;5.93;3.97;;;;;;;;;;5014013;28;20109;-41
2021/08/16 08:16:42;;;;;;;7.53;4.05;;;;;;;;;;5029389;28;20038;-41
2021/08/16 08:19:08;;;;;;;8.20;3.63;;;;;;;;;;5013976;28;20480;-41
2021/08/16 08:21:33;;;;;;;9.15;4.20;;;;;;;;;;5014128;28;20030;-41
2021/08/16 08:23:58;;;;;;;7.35;3.90;;;;;;;;;;5013875;28;20418;-42
2021/08/16 08:26:24;;;;;;;5.97;3.58;;;;;;;;;;5014241;28;20117;-41
2021/08/16 08:28:49;;;;;;;5.53;3.72;;;;;;;;;;5013878;28;20026;-41
2021/08/16 08:31:15;;;;;;;7.50;3.70;;;;;;;;;;5013700;28;20047;-41
2021/08/16 08:33:40;;;;;;;8.55;3.42;;;;;;;;;;5013712;28;20097;-41
2021/08/16 08:36:06;;;;;;;6.32;3.40;;;;;;;;;;5028786;28;20102;-41
2021/08/16 08:38:31;;;;;;;6.20;3.70;;;;;;;;;;5013844;28;20017;-41
2021/08/16 08:40:58;;;;;;;5.10;3.90;;;;;;;;;;5014002;28;20041;-42
2021/08/16 08:43:23;;;;;;;5.70;4.00;;;;;;;;;;5014102;28;20028;-40
2021/08/16 08:45:49;;;;;;;5.05;3.70;;;;;;;;;;5014079;28;20030;-41
2021/08/16 08:48:17;;;;;;;13.73;4.10;;;;;;;;;;5013796;28;20539;-41
2021/08/16 08:50:43;;;;;;;7.85;3.95;;;;;;;;;;5013853;28;20030;-41
2021/08/16 08:53:08;;;;;;;7.60;4.20;;;;;;;;;;5028932;28;20528;-41
2021/08/16 08:55:33;;;;;;;7.60;3.75;;;;;;;;;;5013661;28;20069;-41
2021/08/16 08:58:01;;;;;;;6.35;4.07;;;;;;;;;;5013236;28;20116;-41
2021/08/16 09:00:26;;;;;;;5.07;3.50;;;;;;;;;;5013351;28;20113;-41
2021/08/16 09:02:58;;;;;;;4.72;3.42;;;;;;;;;;5013281;28;20096;-41
2021/08/16 09:05:24;;;;;;;8.30;3.78;;;;;;;;;;5013224;28;20029;-41
2021/08/16 09:07:49;;;;;;;10.00;3.60;;;;;;;;;;5013250;28;20080;-41
2021/08/16 09:10:16;;;;;;;5.07;3.45;;;;;;;;;;5013270;28;20033;-41
2021/08/16 09:12:42;;;;;;;3.88;3.33;;;;;;;;;;5013158;28;20105;-40
2021/08/16 09:15:15;;;;;;;6.53;4.05;;;;;;;;;;5012839;28;20034;-41
2021/08/16 09:17:40;;;;;;;4.55;3.30;;;;;;;;;;5013253;28;20026;-41
2021/08/16 09:20:21;;;;;;;7.00;3.80;;;;;;;;;;5012794;28;20090;-41
2021/08/16 09:22:54;;;;;;;9.20;4.35;;;;;;;;;;5012992;28;20376;-40
2021/08/16 09:25:20;;;;;;;7.88;3.67;;;;;;;;;;5027829;28;20045;-41
2021/08/16 09:27:46;;;;;;;8.98;4.15;;;;;;;;;;5012888;28;20156;-40
2021/08/16 09:30:15;;;;;;;6.25;4.03;;;;;;;;;;5012967;28;20037;-41
2021/08/16 09:32:40;;;;;;;7.00;3.95;;;;;;;;;;5012860;28;20060;-41
2021/08/16 09:35:15;;;;;;;5.97;3.50;;;;;;;;;;5012972;28;20496;-41
2021/08/16 09:37:41;;;;;;;8.05;3.85;;;;;;;;;;5027979;28;20385;-41
2021/08/16 09:40:17;;;;;;;4.68;3.75;;;;;;;;;;5012522;28;20029;-41
2021/08/16 09:42:46;;;;;;;5.15;3.15;;;;;;;;;;5011479;28;20026;-41
2021/08/16 09:45:12;;;;;;;8.68;3.53;;;;;;;;;;5027802;28;20034;-40
2021/08/16 09:47:38;;;;;;;4.32;3.05;;;;;;;;;;5011936;28;20029;-41
2021/08/16 09:50:04;;;;;;;7.35;3.40;;;;;;;;;;5012522;28;20104;-41
2021/08/16 09:52:31;;;;;;;7.90;3.60;;;;;;;;;;5012666;28;20180;-41
2021/08/16 09:54:57;;;;;;;7.93;3.53;;;;;;;;;;5027693;28;20030;-42
2021/08/16 09:57:22;;;;;;;8.82;3.10;;;;;;;;;;5012565;28;20104;-41
2021/08/16 09:59:48;;;;;;;5.50;3.17;;;;;;;;;;5012513;28;20065;-41
2021/08/16 10:02:14;;;;;;;4.65;3.08;;;;;;;;;;5012398;28;20033;-41
2021/08/16 10:04:39;;;;;;;6.55;3.15;;;;;;;;;;5012559;28;20025;-40
2021/08/16 10:07:05;;;;;;;6.20;3.65;;;;;;;;;;5012615;28;20033;-40
2021/08/16 10:09:31;;;;;;;6.68;3.40;;;;;;;;;;5012420;28;20029;-41
2021/08/16 10:11:57;;;;;;;3.78;3.40;;;;;;;;;;5012378;28;20473;-41
2021/08/16 10:14:25;;;;;;;5.45;3.45;;;;;;;;;;5012285;28;20487;-41
2021/08/16 10:16:52;;;;;;;8.57;3.30;;;;;;;;;;5012396;28;20046;-42
2021/08/16 10:19:19;;;;;;;5.25;3.10;;;;;;;;;;5011876;28;20018;-41
2021/08/16 10:21:45;;;;;;;8.15;2.88;;;;;;;;;;5012281;28;20105;-41
2021/08/16 10:24:14;;;;;;;6.47;3.25;;;;;;;;;;5027239;28;20137;-42
2021/08/16 10:26:40;;;;;;;8.13;3.25;;;;;;;;;;5012353;28;20038;-40
2021/08/16 10:29:06;;;;;;;5.35;3.60;;;;;;;;;;5012457;28;20053;-41
2021/08/16 10:31:32;;;;;;;4.95;2.97;;;;;;;;;;5012442;28;20121;-41
2021/08/16 10:33:58;;;;;;;4.43;3.60;;;;;;;;;;5012125;28;20461;-40
2021/08/16 10:36:24;;;;;;;6.95;3.05;;;;;;;;;;5012114;28;20100;-41
2021/08/16 10:38:50;;;;;;;5.25;3.17;;;;;;;;;;5012122;28;20113;-41
2021/08/16 10:41:26;;;;;;;4.55;3.35;;;;;;;;;;5012018;28;20469;-42
2021/08/16 10:43:52;;;;;;;3.55;3.25;;;;;;;;;;5012370;28;20042;-42
2021/08/16 10:46:21;;;;;;;4.50;3.15;;;;;;;;;;5012280;28;20029;-42
2021/08/16 10:48:47;;;;;;;5.93;3.50;;;;;;;;;;5012114;28;20495;-42
2021/08/16 10:51:12;;;;;;;9.23;4.05;;;;;;;;;;5011905;28;20022;-42
2021/08/16 10:53:46;;;;;;;4.95;3.28;;;;;;;;;;5012323;28;20029;-42
2021/08/16 10:56:16;;;;;;;5.07;3.47;;;;;;;;;;5012151;28;20048;-42
2021/08/16 10:58:42;;;;;;;5.88;3.22;;;;;;;;;;5014426;28;20025;-42
2021/08/16 11:01:07;;;;;;;5.22;3.13;;;;;;;;;;5015394;28;20037;-42
2021/08/16 11:03:33;;;;;;;10.27;3.58;;;;;;;;;;5015789;28;20068;-42
2021/08/16 11:06:04;;;;;;;3.13;2.65;;;;;;;;;;5015302;28;20125;-42
2021/08/16 11:08:31;;;;;;;8.65;3.13;;;;;;;;;;5015222;28;20037;-42
2021/08/16 11:11:03;;;;;;;7.50;4.00;;;;;;;;;;5014062;28;20022;-42
2021/08/16 11:13:32;;;;;;;9.98;3.72;;;;;;;;;;5030539;28;20030;-42
2021/08/16 11:16:03;;;;;;;5.50;2.72;;;;;;;;;;5015209;28;20042;-42
2021/08/16 11:18:29;;;;;;;6.40;2.60;;;;;;;;;;5014626;28;20053;-43
2021/08/16 11:20:58;;;;;;;16.48;3.88;;;;;;;;;;5015338;28;20022;-42
2021/08/16 11:23:23;;;;;;;9.48;3.85;;;;;;;;;;5030346;28;20536;-42
2021/08/16 11:25:50;;;;;;;5.70;3.55;;;;;;;;;;5013695;28;20073;-42
2021/08/16 11:28:18;;;;;;;5.72;3.00;;;;;;;;;;5014771;28;20392;-42
2021/08/16 11:30:44;;;;;;;7.10;2.85;;;;;;;;;;5015292;28;20484;-42
2021/08/16 11:33:09;;;;;;;4.57;2.60;;;;;;;;;;5029688;28;20026;-42
2021/08/16 11:35:35;;;;;;;12.50;2.80;;;;;;;;;;5014736;28;20167;-42
2021/08/16 11:38:00;;;;;;;9.57;2.80;;;;;;;;;;5014790;28;20088;-43
2021/08/16 11:40:25;;;;;;;5.82;2.70;;;;;;;;;;5014682;28;20026;-44
2021/08/16 11:42:51;;;;;;;7.78;3.33;;;;;;;;;;5029989;28;20037;-42
2021/08/16 11:45:18;;;;;;;4.15;2.85;;;;;;;;;;5030028;28;20030;-42
2021/08/16 11:47:44;;;;;;;16.00;3.38;;;;;;;;;;5014559;28;20053;-42
2021/08/16 11:50:14;;;;;;;10.98;3.10;;;;;;;;;;5030102;28;20026;-42
2021/08/16 11:52:40;;;;;;;10.05;2.88;;;;;;;;;;5014623;28;20026;-42
2021/08/16 11:55:06;;;;;;;9.73;3.03;;;;;;;;;;5014579;28;20053;-42
2021/08/16 11:57:36;;;;;;;11.95;2.92;;;;;;;;;;5014614;28;20468;-41
2021/08/16 12:00:02;;;;;;;10.98;2.95;;;;;;;;;;5029673;28;20109;-42
2021/08/16 12:02:38;;;;;;;13.95;2.83;;;;;;;;;;5014447;28;20408;-42
2021/08/16 12:05:04;;;;;;;13.15;3.13;;;;;;;;;;5029562;28;20037;-42
2021/08/16 12:07:30;;;;;;;8.35;2.53;;;;;;;;;;5013041;28;20064;-42
2021/08/16 12:09:56;;;;;;;9.23;3.00;;;;;;;;;;5013313;28;20164;-42
2021/08/16 12:12:22;;;;;;;8.98;3.25;;;;;;;;;;5029462;28;20527;-42
2021/08/16 12:14:58;;;;;;;5.22;2.85;;;;;;;;;;5014159;28;20544;-43
2021/08/16 12:17:24;;;;;;;5.00;2.42;;;;;;;;;;5014075;28;20033;-42
2021/08/16 12:20:00;;;;;;;6.07;2.45;;;;;;;;;;5012812;28;20026;-42
2021/08/16 12:22:25;;;;;;;11.80;3.10;;;;;;;;;;5013989;28;20485;-42
2021/08/16 12:24:58;;;;;;;8.13;3.00;;;;;;;;;;5013954;28;20056;-42
2021/08/16 12:27:26;;;;;;;13.25;3.00;;;;;;;;;;5014035;28;20022;-42
2021/08/16 12:29:51;;;;;;;10.23;3.28;;;;;;;;;;5028856;28;20095;-42
2021/08/16 12:32:18;;;;;;;10.15;2.80;;;;;;;;;;5013725;28;20034;-42
2021/08/16 12:34:44;;;;;;;9.70;3.38;;;;;;;;;;5013757;28;20014;-42
2021/08/16 12:37:20;;;;;;;9.93;3.47;;;;;;;;;;5012502;28;20560;-43
2021/08/16 12:39:45;;;;;;;7.57;2.78;;;;;;;;;;5028235;28;20030;-43
2021/08/16 12:42:11;;;;;;;11.10;2.60;;;;;;;;;;5013924;28;20036;-42
2021/08/16 12:44:43;;;;;;;3.83;2.25;;;;;;;;;;5013813;28;20464;-42
2021/08/16 12:47:08;;;;;;;5.07;2.33;;;;;;;;;;5013528;28;20045;-42
2021/08/16 12:49:34;;;;;;;9.50;3.03;;;;;;;;;;5013816;28;20252;-42
2021/08/16 12:52:00;;;;;;;10.50;2.67;;;;;;;;;;5013678;28;20053;-41
2021/08/16 12:54:26;;;;;;;4.85;2.85;;;;;;;;;;5012523;28;20272;-42
2021/08/16 12:56:53;;;;;;;11.38;2.65;;;;;;;;;;5013447;28;20520;-42
2021/08/16 12:59:21;;;;;;;6.50;3.20;;;;;;;;;;5013490;28;20042;-42
2021/08/16 13:01:54;;;;;;;11.93;3.03;;;;;;;;;;5013239;28;20036;-42
2021/08/16 13:04:19;;;;;;;;;;;;;;;;;;5013696;28;20057;-42
2021/08/16 13:06:45;;;;;;;5.57;2.60;;;;;;;;;;5013040;28;19948;-42
2021/08/16 13:09:10;;;;;;;8.15;2.00;;;;;;;;;;5028444;28;20658;-42
2021/08/16 13:11:36;;;;;;;10.50;2.40;;;;;;;;;;5013198;28;20021;-42
2021/08/16 13:14:01;;;;;;;14.43;3.75;;;;;;;;;;5027857;28;20109;-42
2021/08/16 13:16:27;;;;;;;18.20;3.53;;;;;;;;;;5013048;28;20381;-42
2021/08/16 13:18:53;;;;;;;9.13;2.85;;;;;;;;;;5012679;28;20026;-42
2021/08/16 13:21:19;;;;;;;8.00;2.97;;;;;;;;;;5011874;28;20064;-43
2021/08/16 13:23:44;;;;;;;10.18;2.60;;;;;;;;;;5013279;28;20435;-43
2021/08/16 13:26:10;;;;;;;9.02;2.75;;;;;;;;;;5012700;28;20046;-43
2021/08/16 13:28:36;;;;;;;12.40;3.25;;;;;;;;;;5011619;28;20032;-42
2021/08/16 13:31:02;;;;;;;21.52;3.42;;;;;;;;;;5013042;28;20038;-42
2021/08/16 13:33:27;;;;;;;9.43;2.63;;;;;;;;;;5028059;28;20034;-42
2021/08/16 13:35:53;;;;;;;16.10;2.97;;;;;;;;;;5012639;28;20030;-42
2021/08/16 13:38:18;;;;;;;11.30;2.75;;;;;;;;;;5012941;28;20034;-43
2021/08/16 13:40:43;;;;;;;21.77;3.58;;;;;;;;;;5012750;28;20025;-42
2021/08/16 13:43:09;;;;;;;10.45;2.55;;;;;;;;;;5012556;28;20161;-43
2021/08/16 13:45:34;;;;;;;7.07;2.78;;;;;;;;;;5012482;28;20033;-43
2021/08/16 13:48:00;;;;;;;9.27;2.92;;;;;;;;;;5012772;28;20026;-43
2021/08/16 13:50:26;;;;;;;14.77;3.28;;;;;;;;;;5027413;28;20417;-43
2021/08/16 13:52:51;;;;;;;15.55;2.95;;;;;;;;;;5012922;28;20053;-42
2021/08/16 13:55:17;;;;;;;11.48;2.80;;;;;;;;;;5027892;28;20477;-42
2021/08/16 13:57:42;;;;;;;11.70;2.35;;;;;;;;;;5012567;28;20192;-42
2021/08/16 14:00:08;;;;;;;14.73;3.10;;;;;;;;;;5012661;28;20102;-42
2021/08/16 14:02:33;;;;;;;11.05;3.30;;;;;;;;;;5012363;28;20465;-43
2021/08/16 14:04:59;;;;;;;13.73;3.78;;;;;;;;;;5012749;28;20444;-43
2021/08/16 14:07:25;;;;;;;11.70;2.75;;;;;;;;;;5012477;28;20032;-42
2021/08/16 14:09:51;;;;;;;12.05;3.13;;;;;;;;;;5027635;28;20022;-42
2021/08/16 14:12:17;;;;;;;14.48;4.15;;;;;;;;;;5027521;28;20022;-42
2021/08/16 14:14:42;;;;;;;6.15;3.38;;;;;;;;;;5012208;28;20048;-42
2021/08/16 14:17:08;;;;;;;6.85;2.53;;;;;;;;;;5012201;28;20512;-42
2021/08/16 14:19:34;;;;;;;11.48;3.25;;;;;;;;;;5012319;28;20024;-42
2021/08/16 14:21:59;;;;;;;17.15;3.58;;;;;;;;;;5012421;28;20057;-43
2021/08/16 14:24:24;;;;;;;18.30;4.18;;;;;;;;;;5027222;28;20070;-42
2021/08/16 14:26:50;;;;;;;7.97;3.47;;;;;;;;;;5027527;28;20026;-42
2021/08/16 14:29:15;;;;;;;6.35;3.28;;;;;;;;;;5012458;28;20042;-43
2021/08/16 14:31:41;;;;;;;13.50;2.47;;;;;;;;;;5012225;28;20041;-42
2021/08/16 14:34:08;;;;;;;13.45;3.13;;;;;;;;;;5016043;28;20144;-42